createdAt,value
2023-05-10T00:01:28.886Z,3.20
2023-05-10T00:04:35.141Z,3.60
2023-05-10T00:07:41.382Z,3.10
2023-05-10T00:10:47.451Z,3.40
2023-05-10T00:13:53.709Z,3.50
2023-05-10T00:16:59.757Z,3.10
2023-05-10T00:20:07.030Z,3.30
2023-05-10T00:23:13.106Z,3.90
2023-05-10T00:26:19.571Z,3.50
2023-05-10T00:29:25.697Z,3.50
2023-05-10T00:32:32.061Z,3.50
2023-05-10T00:35:39.156Z,3.60
2023-05-10T00:38:45.738Z,3.70
2023-05-10T00:41:51.958Z,4.00
2023-05-10T00:44:58.767Z,3.60
2023-05-10T00:48:06.447Z,3.80
2023-05-10T00:51:12.733Z,3.60
2023-05-10T00:54:19.035Z,4.10
2023-05-10T00:57:25.951Z,4.00
2023-05-10T01:00:32.400Z,3.90
2023-05-10T01:03:39.049Z,4.40
2023-05-10T01:06:45.592Z,4.10
2023-05-10T01:09:51.888Z,4.00
2023-05-10T01:12:58.709Z,4.10
2023-05-10T01:16:05.249Z,4.30
2023-05-10T01:19:18.317Z,4.10
2023-05-10T01:22:42.074Z,3.80
2023-05-10T01:26:26.694Z,3.70
2023-05-10T01:30:09.176Z,4.30
2023-05-10T01:33:22.093Z,4.10
2023-05-10T01:36:35.966Z,4.20
2023-05-10T01:39:47.246Z,4.00
2023-05-10T01:42:55.630Z,4.10
2023-05-10T01:46:11.538Z,3.80
2023-05-10T01:49:22.069Z,4.40
2023-05-10T01:52:32.879Z,3.90
2023-05-10T01:55:42.296Z,4.50
2023-05-10T01:58:50.244Z,4.30
2023-05-10T02:01:57.470Z,4.50
2023-05-10T02:05:03.699Z,4.50
2023-05-10T02:08:11.268Z,4.10
2023-05-10T02:11:17.975Z,4.40
2023-05-10T02:14:26.068Z,4.00
2023-05-10T02:17:33.075Z,4.20
2023-05-10T02:20:40.531Z,4.30
2023-05-10T02:23:46.868Z,4.30
2023-05-10T02:26:54.244Z,4.60
2023-05-10T02:30:01.709Z,4.50
2023-05-10T02:33:08.670Z,4.70
2023-05-10T02:36:15.137Z,4.30
2023-05-10T02:39:23.139Z,4.50
2023-05-10T02:42:31.673Z,4.20
2023-05-10T02:45:40.056Z,4.40
2023-05-10T02:48:46.161Z,4.40
2023-05-10T02:51:57.867Z,4.40
2023-05-10T02:55:07.042Z,4.60
2023-05-10T02:58:13.340Z,4.90
2023-05-10T03:01:19.573Z,4.90
2023-05-10T03:04:26.025Z,4.70
2023-05-10T03:07:32.176Z,5.30
2023-05-10T03:10:44.308Z,4.80
2023-05-10T03:13:59.275Z,5.80
2023-05-10T03:17:11.918Z,4.80
2023-05-10T03:20:25.479Z,5.00
2023-05-10T03:23:38.121Z,4.50
2023-05-10T03:26:47.085Z,4.80
2023-05-10T03:29:54.851Z,5.20
2023-05-10T03:33:01.524Z,4.50
2023-05-10T03:36:08.889Z,5.00
2023-05-10T03:39:14.818Z,5.00
2023-05-10T03:42:22.161Z,5.40
2023-05-10T03:45:28.628Z,5.40
2023-05-10T03:48:35.984Z,6.00
2023-05-10T03:51:41.991Z,4.80
2023-05-10T03:54:49.043Z,4.90
2023-05-10T03:57:55.707Z,5.00
2023-05-10T04:01:02.648Z,4.90
2023-05-10T04:04:08.921Z,4.80
2023-05-10T04:07:15.404Z,5.10
2023-05-10T04:10:22.369Z,4.60
2023-05-10T04:13:28.926Z,4.90
2023-05-10T04:16:35.161Z,5.10
2023-05-10T04:19:41.688Z,5.10
2023-05-10T04:22:47.845Z,5.00
2023-05-10T04:25:54.624Z,4.80
2023-05-10T04:29:00.785Z,4.10
2023-05-10T04:32:07.459Z,4.50
2023-05-10T04:35:15.962Z,4.60
2023-05-10T04:38:22.731Z,4.60
2023-05-10T04:41:28.983Z,4.40
2023-05-10T04:44:35.252Z,4.50
2023-05-10T04:47:41.415Z,4.60
2023-05-10T04:50:47.764Z,4.80
2023-05-10T04:54:05.307Z,4.80
2023-05-10T04:57:13.224Z,4.60
2023-05-10T05:00:20.523Z,4.60
2023-05-10T05:03:26.892Z,4.50
2023-05-10T05:06:33.060Z,4.60
2023-05-10T05:09:39.734Z,4.80
2023-05-10T05:12:45.835Z,4.30
2023-05-10T05:15:52.027Z,4.40
2023-05-10T05:18:58.181Z,4.20
2023-05-10T05:22:04.639Z,4.60
2023-05-10T05:25:12.848Z,4.50
2023-05-10T05:28:19.271Z,4.90
2023-05-10T05:31:25.493Z,4.20
2023-05-10T05:34:31.952Z,4.80
2023-05-10T05:37:38.379Z,4.80
2023-05-10T05:40:44.763Z,4.50
2023-05-10T05:43:50.956Z,4.20
2023-05-10T05:46:57.419Z,4.90
2023-05-10T05:50:03.770Z,4.60
2023-05-10T05:53:10.484Z,4.50
2023-05-10T05:56:16.512Z,4.70
2023-05-10T05:59:22.914Z,4.60
2023-05-10T06:02:29.011Z,4.50
2023-05-10T06:05:35.218Z,4.30
2023-05-10T06:08:41.310Z,4.40
2023-05-10T06:11:47.946Z,3.80
2023-05-10T06:14:54.060Z,4.60
2023-05-10T06:18:00.410Z,3.40
2023-05-10T06:21:06.613Z,4.30
2023-05-10T06:24:13.004Z,4.10
2023-05-10T06:27:19.106Z,4.40
2023-05-10T06:30:30.281Z,4.10
2023-05-10T06:33:36.636Z,3.80
2023-05-10T06:36:43.079Z,4.10
2023-05-10T06:39:49.636Z,4.10
2023-05-10T06:42:56.035Z,4.30
2023-05-10T06:46:02.340Z,3.90
2023-05-10T06:49:09.017Z,4.50
2023-05-10T06:52:15.231Z,4.40
2023-05-10T06:55:21.946Z,4.30
2023-05-10T06:58:28.781Z,4.10
2023-05-10T07:01:35.509Z,4.00
2023-05-10T07:04:42.144Z,4.10
2023-05-10T07:07:48.654Z,3.70
2023-05-10T07:10:55.286Z,4.20
2023-05-10T07:14:02.081Z,3.70
2023-05-10T07:17:08.138Z,4.00
2023-05-10T07:20:15.704Z,3.90
2023-05-10T07:23:21.813Z,3.60
2023-05-10T07:26:28.103Z,4.00
2023-05-10T07:29:35.183Z,4.30
2023-05-10T07:32:42.917Z,3.40
2023-05-10T07:35:49.149Z,3.70
2023-05-10T07:38:55.884Z,3.60
2023-05-10T07:42:02.214Z,3.70
2023-05-10T07:45:10.610Z,3.60
2023-05-10T07:48:16.775Z,4.40
2023-05-10T07:51:23.065Z,4.20
2023-05-10T07:54:29.158Z,3.70
2023-05-10T07:57:35.414Z,4.50
2023-05-10T08:00:42.301Z,3.10
2023-05-10T08:03:48.822Z,3.70
2023-05-10T08:06:55.195Z,3.90
2023-05-10T08:10:01.758Z,4.10
2023-05-10T08:13:08.105Z,4.00
2023-05-10T08:16:14.786Z,4.20
2023-05-10T08:19:22.417Z,3.90
2023-05-10T08:22:28.748Z,3.90
2023-05-10T08:25:34.945Z,4.10
2023-05-10T08:28:41.408Z,3.90
2023-05-10T08:31:47.651Z,4.00
2023-05-10T08:34:54.455Z,3.50
2023-05-10T08:38:00.475Z,4.20
2023-05-10T08:41:07.359Z,4.00
2023-05-10T08:44:13.560Z,4.20
2023-05-10T08:47:22.102Z,4.00
2023-05-10T08:50:29.250Z,3.90
2023-05-10T08:53:37.136Z,4.60
2023-05-10T08:56:43.244Z,4.10
2023-05-10T08:59:51.378Z,4.10
2023-05-10T09:02:58.018Z,4.30
2023-05-10T09:06:04.853Z,4.50
2023-05-10T09:09:11.447Z,4.20
2023-05-10T09:12:17.987Z,3.70
2023-05-10T09:15:24.764Z,3.80
2023-05-10T09:18:31.231Z,3.20
2023-05-10T09:21:39.203Z,3.50
2023-05-10T09:24:47.061Z,3.80
2023-05-10T09:27:54.588Z,3.60
2023-05-10T09:31:01.548Z,3.90
2023-05-10T09:34:07.845Z,3.60
2023-05-10T09:37:13.937Z,4.30
2023-05-10T09:40:22.141Z,3.80
2023-05-10T09:43:28.632Z,3.90
2023-05-10T09:46:39.012Z,4.10
2023-05-10T09:49:45.401Z,3.90
2023-05-10T09:52:53.189Z,2.70
2023-05-10T09:55:59.756Z,3.40
2023-05-10T09:59:10.034Z,3.70
2023-05-10T10:02:16.494Z,3.70
2023-05-10T10:05:22.639Z,3.70
2023-05-10T10:08:29.258Z,3.60
2023-05-10T10:11:36.043Z,3.30
2023-05-10T10:14:42.603Z,3.40
2023-05-10T10:17:49.438Z,3.60
2023-05-10T10:20:56.650Z,3.30
2023-05-10T10:24:03.276Z,3.70
2023-05-10T10:27:15.480Z,2.70
2023-05-10T10:30:28.558Z,3.50
2023-05-10T10:33:58.547Z,3.10
2023-05-10T10:37:08.355Z,3.40
2023-05-10T10:40:33.558Z,3.70
2023-05-10T10:43:41.365Z,3.60
2023-05-10T10:47:09.787Z,3.20
2023-05-10T10:50:17.342Z,3.40
2023-05-10T10:53:23.562Z,3.30
2023-05-10T10:56:29.787Z,3.10
2023-05-10T10:59:35.970Z,3.10
2023-05-10T11:02:49.887Z,3.50
2023-05-10T11:06:02.923Z,3.40
2023-05-10T11:09:11.449Z,3.40
2023-05-10T11:12:17.722Z,3.50
2023-05-10T11:15:23.881Z,3.40
2023-05-10T11:18:31.094Z,3.20
2023-05-10T11:21:47.253Z,2.90
2023-05-10T11:25:02.233Z,3.30
2023-05-10T11:28:08.643Z,3.10
2023-05-10T11:31:16.182Z,3.00
2023-05-10T11:34:31.294Z,3.40
2023-05-10T11:37:37.652Z,2.90
2023-05-10T11:40:44.694Z,3.00
2023-05-10T11:43:51.792Z,3.30
2023-05-10T11:46:58.076Z,3.60
2023-05-10T11:50:04.636Z,3.00
2023-05-10T11:53:10.940Z,2.70
2023-05-10T11:56:17.186Z,3.00
2023-05-10T11:59:23.449Z,2.70
2023-05-10T12:02:31.337Z,2.40
2023-05-10T12:05:37.841Z,2.70
2023-05-10T12:08:49.112Z,2.80
2023-05-10T12:11:59.166Z,2.70
2023-05-10T12:15:06.363Z,2.50
2023-05-10T12:18:13.554Z,2.40
2023-05-10T12:21:20.444Z,2.50
2023-05-10T12:24:28.272Z,2.30
2023-05-10T12:27:37.524Z,2.70
2023-05-10T12:30:43.770Z,2.80
2023-05-10T12:33:50.755Z,2.90
2023-05-10T12:36:58.654Z,2.70
2023-05-10T12:40:06.153Z,2.80
2023-05-10T12:43:12.703Z,2.80
2023-05-10T12:46:20.330Z,2.60
2023-05-10T12:49:26.528Z,2.80
2023-05-10T12:52:33.845Z,2.30
2023-05-10T12:55:40.842Z,2.60
2023-05-10T12:58:49.321Z,2.60
2023-05-10T13:01:55.538Z,2.60
2023-05-10T13:05:02.399Z,2.40
2023-05-10T13:08:09.081Z,2.60
2023-05-10T13:11:17.994Z,2.50
2023-05-10T13:14:24.217Z,2.70
2023-05-10T13:17:32.225Z,2.50
2023-05-10T13:23:45.577Z,2.50
2023-05-10T13:26:52.212Z,2.20
2023-05-10T13:30:00.538Z,2.40
2023-05-10T13:33:07.073Z,2.50
2023-05-10T13:36:13.660Z,2.60
2023-05-10T13:39:20.246Z,2.50
2023-05-10T13:42:27.071Z,2.40
2023-05-10T13:45:33.287Z,2.40
2023-05-10T13:48:39.645Z,2.30
2023-05-10T13:51:47.158Z,2.30
2023-05-10T13:54:56.036Z,1.90
2023-05-10T13:58:02.467Z,2.50
2023-05-10T14:01:08.833Z,2.30
2023-05-10T14:04:14.978Z,2.20
2023-05-10T14:07:21.378Z,2.30
2023-05-10T14:10:27.982Z,2.30
2023-05-10T14:13:34.248Z,2.20
2023-05-10T14:16:40.751Z,2.20
2023-05-10T14:19:46.924Z,2.20
2023-05-10T14:22:53.612Z,2.10
2023-05-10T14:25:59.976Z,2.00
2023-05-10T14:29:06.750Z,2.20
2023-05-10T14:32:13.022Z,2.10
2023-05-10T14:35:20.058Z,2.10
2023-05-10T14:38:26.282Z,2.20
2023-05-10T14:41:32.792Z,2.00
2023-05-10T14:44:39.170Z,2.30
2023-05-10T14:47:45.372Z,2.10
2023-05-10T14:50:53.701Z,1.90
2023-05-10T14:54:00.198Z,2.30
2023-05-10T14:57:07.488Z,2.10
2023-05-10T15:00:17.055Z,2.00
2023-05-10T15:03:23.852Z,2.10
2023-05-10T15:06:36.226Z,2.10
2023-05-10T15:09:42.414Z,2.50
2023-05-10T15:12:48.564Z,1.90
2023-05-10T15:15:54.773Z,2.00
2023-05-10T15:19:01.551Z,2.00
2023-05-10T15:22:08.175Z,1.90
2023-05-10T15:25:15.437Z,2.00
2023-05-10T15:28:22.106Z,2.20
2023-05-10T15:31:28.988Z,2.30
2023-05-10T15:34:37.015Z,2.20
2023-05-10T15:37:43.256Z,2.30
2023-05-10T15:40:49.220Z,2.00
2023-05-10T15:43:55.859Z,2.00
2023-05-10T15:47:02.064Z,2.00
2023-05-10T15:50:10.074Z,1.70
2023-05-10T15:53:16.316Z,2.10
2023-05-10T15:56:23.189Z,1.80
2023-05-10T15:59:29.630Z,1.90
2023-05-10T16:02:36.045Z,2.00
2023-05-10T16:05:42.444Z,1.80
2023-05-10T16:08:49.083Z,2.00
2023-05-10T16:11:55.729Z,1.80
2023-05-10T16:15:01.941Z,1.70
2023-05-10T16:18:08.989Z,1.90
2023-05-10T16:21:15.290Z,1.90
2023-05-10T16:24:21.892Z,2.10
2023-05-10T16:27:30.357Z,1.90
2023-05-10T16:30:36.925Z,2.00
2023-05-10T16:33:43.936Z,2.10
2023-05-10T16:36:50.055Z,2.00
2023-05-10T16:39:56.398Z,2.10
2023-05-10T16:43:02.462Z,2.10
2023-05-10T16:46:14.246Z,2.20
2023-05-10T16:49:20.591Z,2.20
2023-05-10T16:52:27.528Z,2.30
2023-05-10T16:55:33.646Z,2.60
2023-05-10T16:58:39.802Z,2.40
2023-05-10T17:01:47.373Z,2.50
2023-05-10T17:04:56.240Z,2.40
2023-05-10T17:08:02.228Z,2.30
2023-05-10T17:11:08.525Z,2.50
2023-05-10T17:14:14.555Z,2.60
2023-05-10T17:17:21.044Z,2.70
2023-05-10T17:20:27.605Z,2.40
2023-05-10T17:23:33.869Z,2.40
2023-05-10T17:26:40.070Z,2.40
2023-05-10T17:29:47.154Z,2.30
2023-05-10T17:32:54.399Z,2.20
2023-05-10T17:36:01.984Z,2.50
2023-05-10T17:39:07.958Z,2.60
2023-05-10T17:42:17.828Z,2.30
2023-05-10T17:45:24.052Z,2.70
2023-05-10T17:48:31.377Z,2.50
2023-05-10T17:51:37.601Z,2.50
2023-05-10T17:54:43.921Z,2.60
2023-05-10T17:57:51.825Z,2.70
2023-05-10T18:00:59.042Z,2.70
2023-05-10T18:04:06.207Z,2.70
2023-05-10T18:07:13.128Z,2.70
2023-05-10T18:10:19.101Z,2.80
2023-05-10T18:13:25.857Z,2.60
2023-05-10T18:16:31.838Z,3.00
2023-05-10T18:19:38.427Z,2.90
2023-05-10T18:22:45.081Z,2.80
2023-05-10T18:25:51.960Z,2.90
2023-05-10T18:28:59.456Z,2.70
2023-05-10T18:32:07.978Z,2.70
2023-05-10T18:35:14.573Z,2.70
2023-05-10T18:38:20.938Z,2.80
2023-05-10T18:41:27.756Z,3.00
2023-05-10T18:44:34.511Z,3.00
2023-05-10T18:47:44.110Z,2.90
2023-05-10T18:50:50.536Z,2.90
2023-05-10T18:53:56.856Z,2.80
2023-05-10T18:57:03.056Z,3.00
2023-05-10T19:00:12.802Z,2.70
2023-05-10T19:03:19.517Z,3.00
2023-05-10T19:06:25.576Z,3.10
2023-05-10T19:09:32.029Z,3.10
2023-05-10T19:12:38.297Z,3.00
2023-05-10T19:15:44.778Z,3.30
2023-05-10T19:18:51.293Z,3.10
2023-05-10T19:21:58.521Z,3.40
2023-05-10T19:25:05.251Z,3.20
2023-05-10T19:28:12.466Z,3.00
2023-05-10T19:31:18.894Z,3.20
2023-05-10T19:34:25.657Z,3.10
2023-05-10T19:37:31.654Z,2.90
2023-05-10T19:40:38.242Z,2.80
2023-05-10T19:43:44.536Z,3.10
2023-05-10T19:46:50.792Z,2.90
2023-05-10T19:49:57.046Z,2.70
2023-05-10T19:53:04.192Z,2.90
2023-05-10T19:56:10.512Z,2.80
2023-05-10T19:59:17.022Z,2.80
2023-05-10T20:02:23.407Z,2.70
2023-05-10T20:05:30.119Z,3.00
2023-05-10T20:08:36.237Z,2.60
2023-05-10T20:11:42.551Z,2.80
2023-05-10T20:14:48.707Z,2.70
2023-05-10T20:17:55.545Z,2.80
2023-05-10T20:21:02.395Z,2.90
2023-05-10T20:24:10.116Z,2.80
2023-05-10T20:27:16.591Z,2.90
2023-05-10T20:30:23.848Z,3.00
2023-05-10T20:33:30.685Z,2.80
2023-05-10T20:36:36.975Z,2.80
2023-05-10T20:39:43.053Z,3.00
2023-05-10T20:42:49.727Z,2.80
2023-05-10T20:45:56.410Z,2.90
2023-05-10T20:49:03.037Z,2.80
2023-05-10T20:52:09.535Z,2.90
2023-05-10T20:55:15.929Z,2.80
2023-05-10T20:58:22.159Z,2.70
2023-05-10T21:01:28.562Z,2.90
2023-05-10T21:04:35.241Z,2.90
2023-05-10T21:07:41.780Z,2.60
2023-05-10T21:10:48.163Z,2.90
2023-05-10T21:13:54.514Z,2.90
2023-05-10T21:17:00.550Z,2.70
2023-05-10T21:20:08.209Z,2.90
2023-05-10T21:23:14.561Z,2.80
2023-05-10T21:26:21.258Z,3.00
2023-05-10T21:29:27.536Z,2.70
2023-05-10T21:32:33.825Z,2.90
2023-05-10T21:35:43.153Z,2.90
2023-05-10T21:38:50.673Z,2.90
2023-05-10T21:41:57.004Z,3.00
2023-05-10T21:45:03.391Z,2.90
2023-05-10T21:48:09.831Z,2.80
2023-05-10T21:51:16.436Z,2.80
2023-05-10T21:54:22.509Z,2.90
2023-05-10T21:57:29.257Z,3.00
2023-05-10T22:00:35.711Z,2.70
2023-05-10T22:03:42.343Z,2.80
2023-05-10T22:06:49.256Z,2.80
2023-05-10T22:09:55.670Z,2.90
2023-05-10T22:13:01.990Z,2.80
2023-05-10T22:16:08.324Z,3.60
2023-05-10T22:19:14.539Z,2.80
2023-05-10T22:22:21.102Z,2.70
2023-05-10T22:25:27.401Z,3.10
2023-05-10T22:28:33.778Z,3.00
2023-05-10T22:31:40.444Z,2.90
2023-05-10T22:34:47.036Z,2.90
2023-05-10T22:37:53.123Z,2.60
2023-05-10T22:41:00.877Z,2.70
2023-05-10T22:44:08.391Z,2.50
2023-05-10T22:47:14.917Z,2.80
2023-05-10T22:50:21.382Z,3.00
2023-05-10T22:53:28.327Z,2.70
2023-05-10T22:56:34.758Z,2.90
2023-05-10T22:59:41.134Z,2.70
2023-05-10T23:02:47.889Z,2.90
2023-05-10T23:05:54.056Z,2.80
2023-05-10T23:09:00.417Z,2.80
2023-05-10T23:12:07.256Z,2.70
2023-05-10T23:15:14.264Z,2.90
2023-05-10T23:18:20.713Z,3.10
2023-05-10T23:21:26.687Z,2.80
2023-05-10T23:24:32.907Z,2.70
2023-05-10T23:27:39.478Z,2.90
2023-05-10T23:30:45.838Z,2.80
2023-05-10T23:33:51.963Z,2.70
2023-05-10T23:36:58.329Z,2.70
2023-05-10T23:40:04.468Z,3.00
2023-05-10T23:43:11.074Z,3.20
2023-05-10T23:46:17.100Z,2.70
2023-05-10T23:49:23.880Z,2.90
2023-05-10T23:52:30.085Z,2.90
2023-05-10T23:55:36.297Z,2.80
2023-05-10T23:58:42.659Z,3.00
